Amavisti — V2CR5 — position and weather

sailwx.info

Track history (hours):
 
Tides and Currents Weather Stations Pressure Air Temp Water Temp Dewpoint Dewpoint Depression Visibility Wind Speed Wind Dir Waves Ship Positions

Amavisti

Last reported at 2014-Jul-26 12:33 UTC. Time now 2014-Jul-29 20:57 UTC.
Position N 40°58' E 028°60'.

Length 116 m; draft 7 m.

Type: Cargo ship. MMSI: 305086000.

Date/timePositionNaut miles runAvg speedWind from/ knotsBaromVisibWave heightAir tempDewpointWater temp
2014-Jul-26 12:33N 40°58' E 028°60'8 7.7
2014-Jul-26 11:31N 40°50' E 029°01'6 4.4
2014-Jul-26 10:14N 40°45' E 028°57'0 0.4
2014-Jul-26 09:32N 40°45' E 028°58'0 0.2
2014-Jul-26 08:33N 40°45' E 028°58'0 0.3
2014-Jul-26 07:33N 40°45' E 028°58'0 0.2
2014-Jul-26 06:33N 40°45' E 028°58'0 0.2
2014-Jul-26 04:30N 40°44' E 028°59'0 0.1
2014-Jul-26 03:32N 40°44' E 028°59'0 0.1
2014-Jul-26 02:20N 40°44' E 028°59'3 3.2
2014-Jul-26 01:32N 40°46' E 029°01'10 9.6
2014-Jul-26 00:33N 40°47' E 029°14'1010.5
2014-Jul-25 23:33N 40°45' E 029°27'10 9.5
2014-Jul-25 22:33N 40°45' E 029°40'  
2014-Jul-23 08:26N 40°44' E 029°26'5 6.0
2014-Jul-23 07:33N 40°43' E 029°19'6 5.6
2014-Jul-23 06:33N 40°43' E 029°11'1010.0
2014-Jul-23 05:33N 40°43' E 028°58'1110.9
2014-Jul-23 04:31N 40°43' E 028°43'119 9.1
2014-Jul-22 15:29N 40°02' E 026°17'8 8.5
2014-Jul-22 14:31N 40°00' E 026°07'9 9.1
2014-Jul-22 13:33N 39°56' E 025°57'9 9.1
2014-Jul-22 12:32N 39°48' E 025°50'  
2014-Jul-19 17:29N 37°38' E 024°29'6510.8
2014-Jul-19 11:25N 36°49' E 023°35'1010.9
2014-Jul-19 10:31N 36°41' E 023°27'1510.6
2014-Jul-19 09:04N 36°28' E 023°17'610.0
2014-Jul-19 08:26N 36°24' E 023°11'9 9.8
2014-Jul-19 07:32N 36°24' E 023°00'  
Track history (hours):
 
Tides and Currents Weather Stations Pressure Air Temp Water Temp Dewpoint Dewpoint Depression Visibility Wind Speed Wind Dir Waves Ship Positions

Amavisti

Last reported at 2014-Jul-26 12:33 UTC. Time now 2014-Jul-29 20:57 UTC.
Position N 40°58' E 028°60'.

Length 116 m; draft 7 m.

Type: Cargo ship. MMSI: 305086000.

Date/timePositionNaut miles runAvg speedWind from/ knotsBaromVisibWave heightAir tempDewpointWater temp
2014-Jul-26 12:33N 40°58' E 028°60'8 7.7
2014-Jul-26 11:31N 40°50' E 029°01'6 4.4
2014-Jul-26 10:14N 40°45' E 028°57'0 0.4
2014-Jul-26 09:32N 40°45' E 028°58'0 0.2
2014-Jul-26 08:33N 40°45' E 028°58'0 0.3
2014-Jul-26 07:33N 40°45' E 028°58'0 0.2
2014-Jul-26 06:33N 40°45' E 028°58'0 0.2
2014-Jul-26 04:30N 40°44' E 028°59'0 0.1
2014-Jul-26 03:32N 40°44' E 028°59'0 0.1
2014-Jul-26 02:20N 40°44' E 028°59'3 3.2
2014-Jul-26 01:32N 40°46' E 029°01'10 9.6
2014-Jul-26 00:33N 40°47' E 029°14'1010.5
2014-Jul-25 23:33N 40°45' E 029°27'10 9.5
2014-Jul-25 22:33N 40°45' E 029°40'  
2014-Jul-23 08:26N 40°44' E 029°26'5 6.0
2014-Jul-23 07:33N 40°43' E 029°19'6 5.6
2014-Jul-23 06:33N 40°43' E 029°11'1010.0
2014-Jul-23 05:33N 40°43' E 028°58'1110.9
2014-Jul-23 04:31N 40°43' E 028°43'119 9.1
2014-Jul-22 15:29N 40°02' E 026°17'8 8.5
2014-Jul-22 14:31N 40°00' E 026°07'9 9.1
2014-Jul-22 13:33N 39°56' E 025°57'9 9.1
2014-Jul-22 12:32N 39°48' E 025°50'  
2014-Jul-19 17:29N 37°38' E 024°29'6510.8
2014-Jul-19 11:25N 36°49' E 023°35'1010.9
2014-Jul-19 10:31N 36°41' E 023°27'1510.6
2014-Jul-19 09:04N 36°28' E 023°17'610.0
2014-Jul-19 08:26N 36°24' E 023°11'9 9.8
2014-Jul-19 07:32N 36°24' E 023°00'  

Dump ship's entire track history